Time;durP1;ratioP1;P1;durP2;ratioP2;P2;SDS_P1;SDS_P2;PMS_P1;PMS_P2;Temp;Humidity;BMP_temperature;BMP_pressure;BME280_temperature;BME280_humidity;BME280_pressure;Samples;Min_cycle;Max_cycle;Signal;HPM_P1;HPM_P2
2021/07/29 00:00:50;;;;;;;5.47;3.25;;;;;;;19.37;56.25;100749.38;6232235;28;20232;-51
2021/07/29 00:04:11;;;;;;;4.90;2.88;;;;;;;19.30;56.51;100738.22;6237387;28;20687;-50
2021/07/29 00:07:31;;;;;;;4.32;2.53;;;;;;;18.94;57.59;100735.47;6232698;28;20229;-50
2021/07/29 00:10:52;;;;;;;4.75;3.00;;;;;;;19.37;56.25;100737.03;6243312;28;20232;-51
2021/07/29 00:14:14;;;;;;;8.25;3.72;;;;;;;18.65;58.38;100740.25;6236815;28;20228;-52
2021/07/29 00:21:14;;;;;;;4.75;2.75;;;;;;;18.83;57.98;100725.44;6229691;28;20602;-50
2021/07/29 00:24:35;;;;;;;3.88;2.30;;;;;;;19.10;57.13;100730.38;6238958;28;20236;-51
2021/07/29 00:27:56;;;;;;;3.58;2.72;;;;;;;19.07;57.52;100721.66;6237060;28;20232;-50
2021/07/29 00:31:17;;;;;;;5.68;3.45;;;;;;;18.95;57.70;100716.94;6243281;28;20512;-49
2021/07/29 00:34:39;;;;;;;3.15;2.85;;;;;;;19.10;57.43;100718.03;6241908;28;20244;-48
2021/07/29 00:38:03;;;;;;;4.90;3.63;;;;;;;19.00;57.96;100720.25;6231873;28;20513;-47
2021/07/29 00:41:24;;;;;;;3.22;2.83;;;;;;;19.23;57.34;100715.66;6231798;28;20237;-50
2021/07/29 00:44:45;;;;;;;5.50;3.13;;;;;;;19.12;57.98;100705.63;6249394;28;20260;-52
2021/07/29 00:48:06;;;;;;;5.07;3.08;;;;;;;18.94;58.54;100709.09;6223205;28;20237;-51
2021/07/29 00:51:29;;;;;;;2.50;2.10;;;;;;;19.15;58.24;100708.09;6232912;28;20240;-48
2021/07/29 00:54:51;;;;;;;4.18;2.55;;;;;;;18.94;58.66;100696.78;6253721;28;20240;-53
2021/07/29 00:58:12;;;;;;;3.08;2.38;;;;;;;18.80;58.82;100697.38;6241190;28;20231;-54
2021/07/29 01:01:32;;;;;;;3.22;2.70;;;;;;;19.04;58.37;100690.16;6237147;28;20768;-48
2021/07/29 01:04:55;;;;;;;3.70;2.83;;;;;;;18.77;59.26;100686.13;6229960;28;20234;-51
2021/07/29 01:08:17;;;;;;;4.10;2.70;;;;;;;18.78;59.37;100683.38;6213035;28;20233;-49
2021/07/29 01:11:38;;;;;;;3.30;2.60;;;;;;;18.92;58.81;100688.09;6214928;28;20596;-50
2021/07/29 01:14:59;;;;;;;3.88;3.17;;;;;;;18.74;59.02;100684.44;6212873;28;20627;-51
2021/07/29 01:18:21;;;;;;;7.03;3.30;;;;;;;18.64;59.19;100676.09;6215125;28;20232;-52
2021/07/29 01:21:43;;;;;;;4.43;2.88;;;;;;;18.94;58.32;100675.69;6236116;28;20228;-49
2021/07/29 01:25:04;;;;;;;3.30;3.00;;;;;;;18.59;59.24;100666.66;6232386;28;20340;-51
2021/07/29 01:28:25;;;;;;;5.40;3.28;;;;;;;18.49;59.50;100666.22;6241633;28;20220;-52
2021/07/29 01:31:46;;;;;;;6.47;3.88;;;;;;;18.55;58.87;100663.31;6243118;28;20311;-48
2021/07/29 01:35:12;;;;;;;4.55;2.75;;;;;;;18.52;58.89;100655.56;6238086;28;20255;-48
2021/07/29 01:38:34;;;;;;;5.90;3.15;;;;;;;18.58;58.34;100652.63;6234768;28;20224;-51
2021/07/29 01:41:55;;;;;;;4.85;3.08;;;;;;;18.52;58.44;100650.28;6245937;28;20228;-52
2021/07/29 01:45:16;;;;;;;5.03;3.40;;;;;;;18.76;57.66;100642.19;6236356;28;20252;-52
2021/07/29 01:48:37;;;;;;;7.50;3.92;;;;;;;18.43;58.31;100640.13;6232642;28;20225;-50
2021/07/29 01:51:59;;;;;;;3.25;2.67;;;;;;;18.63;57.61;100632.19;6236182;28;20236;-47
2021/07/29 01:55:23;;;;;;;4.95;3.38;;;;;;;18.66;57.29;100632.03;6226176;28;20304;-49
2021/07/29 01:58:44;;;;;;;4.30;3.75;;;;;;;18.44;57.87;100631.31;6230053;28;20240;-53
2021/07/29 02:02:06;;;;;;;6.55;3.53;;;;;;;18.45;57.66;100638.28;6236549;28;20564;-49
2021/07/29 02:05:26;;;;;;;4.35;3.75;;;;;;;18.06;58.48;100647.88;6222912;28;20228;-51
2021/07/29 02:08:47;;;;;;;4.10;3.80;;;;;;;18.36;58.04;100636.06;6237731;28;20278;-52
2021/07/29 02:12:10;;;;;;;6.97;3.73;;;;;;;18.74;56.74;100639.59;6241091;28;20544;-51
2021/07/29 02:15:31;;;;;;;5.20;4.05;;;;;;;18.41;57.24;100636.72;6243376;28;20258;-52
2021/07/29 02:18:51;;;;;;;6.47;4.30;;;;;;;17.87;58.74;100639.91;6238227;28;20326;-49
2021/07/29 02:22:12;;;;;;;5.55;4.55;;;;;;;18.46;57.50;100626.84;6233686;28;20232;-49
2021/07/29 02:25:33;;;;;;;5.30;3.70;;;;;;;18.53;56.98;100635.31;6239008;28;20228;-49
2021/07/29 02:28:55;;;;;;;5.93;3.08;;;;;;;18.22;57.83;100626.13;6231539;28;20233;-50
2021/07/29 02:32:16;;;;;;;6.87;3.60;;;;;;;18.18;58.00;100633.31;6241062;28;20223;-49
2021/07/29 02:35:37;;;;;;;4.57;4.15;;;;;;;18.01;58.63;100618.25;6229996;28;20233;-51
2021/07/29 02:38:58;;;;;;;6.80;4.80;;;;;;;17.93;59.12;100622.13;6236780;28;20227;-52
2021/07/29 02:42:19;;;;;;;7.18;4.22;;;;;;;18.33;57.96;100609.84;6239239;28;20752;-52
2021/07/29 02:45:41;;;;;;;4.68;3.10;;;;;;;18.28;58.20;100610.03;6239400;28;20231;-51
2021/07/29 02:49:02;;;;;;;4.60;3.33;;;;;;;18.42;57.82;100620.00;6250588;28;20295;-50
2021/07/29 02:52:24;;;;;;;9.38;3.97;;;;;;;18.16;58.36;100611.44;6226151;28;20236;-53
2021/07/29 02:55:44;;;;;;;4.20;3.72;;;;;;;17.73;59.88;100605.34;6244951;28;20235;-50
2021/07/29 02:59:05;;;;;;;4.67;4.30;;;;;;;17.69;60.01;100601.97;6245295;28;20216;-47
2021/07/29 03:02:29;;;;;;;4.43;4.07;;;;;;;17.80;59.67;100598.06;6239064;28;20613;-50
2021/07/29 03:05:49;;;;;;;4.23;3.00;;;;;;;18.14;58.31;100597.47;6234691;28;20232;-51
2021/07/29 03:09:12;;;;;;;5.10;3.00;;;;;;;18.16;58.29;100606.16;6234119;28;21173;-49
2021/07/29 03:12:33;;;;;;;4.17;3.27;;;;;;;18.03;58.55;100620.78;6245408;28;20229;-48
2021/07/29 03:15:54;;;;;;;3.83;3.30;;;;;;;18.24;57.93;100603.19;6218499;28;20228;-49
2021/07/29 03:19:16;;;;;;;3.33;3.03;;;;;;;18.12;58.10;100609.84;6253184;28;20233;-50
2021/07/29 03:22:37;;;;;;;4.30;2.40;;;;;;;18.20;57.97;100607.72;6225834;28;20385;-49
2021/07/29 03:25:58;;;;;;;6.27;2.63;;;;;;;18.18;58.24;100606.94;6240796;28;20469;-49
2021/07/29 03:29:19;;;;;;;3.25;2.90;;;;;;;18.48;57.42;100593.34;6240863;28;20245;-53
2021/07/29 03:32:40;;;;;;;3.30;2.97;;;;;;;18.32;57.48;100595.81;6241675;28;20232;-49
2021/07/29 03:36:02;;;;;;;3.78;2.75;;;;;;;18.15;58.17;100606.25;6249812;28;20269;-47
2021/07/29 03:39:23;;;;;;;2.90;2.63;;;;;;;18.16;58.04;100610.59;6237795;28;20220;-49
2021/07/29 03:42:44;;;;;;;5.93;2.83;;;;;;;18.13;58.45;100606.31;6239450;28;20227;-50
2021/07/29 03:46:05;;;;;;;3.17;2.87;;;;;;;18.07;58.45;100628.50;6234287;28;20225;-50
2021/07/29 03:49:26;;;;;;;7.57;3.13;;;;;;;17.98;58.62;100625.41;6249760;28;20232;-49
2021/07/29 03:52:49;;;;;;;3.00;2.30;;;;;;;18.22;58.05;100611.19;6240611;28;20231;-52
2021/07/29 03:56:10;;;;;;;3.57;2.63;;;;;;;18.41;57.23;100615.63;6250901;28;20232;-51
2021/07/29 03:59:30;;;;;;;3.73;3.00;;;;;;;18.23;57.38;100606.75;6220146;28;20270;-50
2021/07/29 04:02:51;;;;;;;3.17;2.60;;;;;;;18.06;58.02;100632.06;6218397;28;20240;-48
2021/07/29 04:06:16;;;;;;;4.78;2.67;;;;;;;18.13;57.91;100622.13;6200338;28;20586;-51
2021/07/29 04:09:38;;;;;;;2.75;2.55;;;;;;;18.14;57.66;100608.00;6201639;28;20595;-50
2021/07/29 04:12:59;;;;;;;3.83;2.63;;;;;;;18.10;57.66;100623.09;6232938;28;20228;-46
2021/07/29 04:16:20;;;;;;;3.57;2.47;;;;;;;18.09;57.73;100625.81;6236763;28;20846;-52
2021/07/29 04:19:40;;;;;;;4.53;2.77;;;;;;;17.95;58.42;100617.63;6235849;28;20228;-53
2021/07/29 04:23:01;;;;;;;4.53;2.60;;;;;;;18.08;57.71;100627.56;6235381;28;20225;-50
2021/07/29 04:26:23;;;;;;;3.93;3.20;;;;;;;18.40;56.97;100629.75;6241160;28;20486;-50
2021/07/29 04:29:44;;;;;;;3.47;2.77;;;;;;;17.86;58.39;100640.81;6233602;28;20236;-50
2021/07/29 04:33:08;;;;;;;4.93;2.63;;;;;;;17.87;58.69;100637.28;6234489;28;20263;-52
2021/07/29 04:36:29;;;;;;;3.27;2.70;;;;;;;18.14;58.08;100639.63;6243656;28;20233;-48
2021/07/29 04:39:49;;;;;;;4.80;3.07;;;;;;;18.13;58.12;100651.13;6233557;28;20240;-49
2021/07/29 04:43:11;;;;;;;4.67;3.03;;;;;;;17.80;59.39;100642.84;6243404;28;20228;-51
2021/07/29 04:46:32;;;;;;;4.97;3.23;;;;;;;17.93;58.90;100637.91;6208257;28;20631;-46
2021/07/29 04:49:53;;;;;;;4.67;3.20;;;;;;;17.97;58.66;100632.47;6222954;28;20233;-50
2021/07/29 04:53:14;;;;;;;4.53;2.93;;;;;;;17.93;59.06;100628.22;6236644;28;20228;-47
2021/07/29 04:56:35;;;;;;;5.50;3.10;;;;;;;18.15;57.96;100629.97;6236496;28;20232;-48
2021/07/29 04:59:57;;;;;;;3.17;2.83;;;;;;;17.85;58.94;100633.81;6234306;28;20793;-49
2021/07/29 05:03:17;;;;;;;4.40;2.80;;;;;;;17.97;58.63;100621.06;6240042;28;20681;-52
2021/07/29 05:06:39;;;;;;;4.43;3.00;;;;;;;17.98;58.35;100639.44;6240722;28;20228;-50
2021/07/29 05:10:00;;;;;;;12.10;3.63;;;;;;;17.82;59.00;100633.09;6235340;28;20315;-49
2021/07/29 05:13:21;;;;;;;4.57;3.37;;;;;;;18.03;58.36;100631.31;6237599;28;20220;-50
2021/07/29 05:16:43;;;;;;;4.43;3.00;;;;;;;17.97;58.52;100631.59;6245667;28;20311;-51
2021/07/29 05:20:05;;;;;;;5.63;3.23;;;;;;;17.97;58.28;100621.06;6215125;28;20233;-54
2021/07/29 05:23:26;;;;;;;6.77;3.10;;;;;;;18.02;58.14;100604.13;6212682;28;20237;-53
2021/07/29 05:26:47;;;;;;;4.67;2.77;;;;;;;18.08;57.88;100624.94;6208368;28;20238;-51
2021/07/29 05:30:09;;;;;;;7.27;3.47;;;;;;;18.10;57.65;100616.97;6207004;28;20234;-53
2021/07/29 05:33:31;;;;;;;3.73;3.43;;;;;;;18.12;57.95;100596.69;6209350;28;20225;-50
2021/07/29 05:36:51;;;;;;;3.50;2.75;;;;;;;18.49;56.80;100616.13;6209545;28;20232;-51
2021/07/29 05:40:12;;;;;;;4.60;2.97;;;;;;;18.42;57.13;100617.34;6225661;28;20232;-50
2021/07/29 05:43:35;;;;;;;3.42;3.05;;;;;;;18.33;56.98;100623.88;6237280;28;20677;-50
2021/07/29 05:46:56;;;;;;;4.85;3.45;;;;;;;18.09;57.75;100631.09;6238569;28;20569;-51
2021/07/29 05:50:18;;;;;;;3.30;2.92;;;;;;;18.45;56.37;100610.13;6240014;28;20615;-51
2021/07/29 05:53:39;;;;;;;3.30;2.78;;;;;;;18.38;56.72;100610.47;6228329;28;20224;-51
2021/07/29 05:57:00;;;;;;;6.47;2.90;;;;;;;18.22;57.07;100605.91;6234511;28;20224;-52
2021/07/29 06:00:21;;;;;;;6.60;3.20;;;;;;;18.25;56.39;100612.81;6234382;28;20323;-49
2021/07/29 06:03:42;;;;;;;4.83;2.70;;;;;;;18.34;55.57;100619.44;6232280;28;20602;-52
2021/07/29 06:07:04;;;;;;;5.43;3.08;;;;;;;18.27;56.05;100606.56;6242028;28;20228;-50
2021/07/29 06:10:25;;;;;;;7.47;3.33;;;;;;;18.73;54.28;100605.38;6232008;28;20645;-49
2021/07/29 06:13:46;;;;;;;6.18;3.72;;;;;;;18.67;54.46;100617.94;6232994;28;20606;-51
2021/07/29 06:17:07;;;;;;;4.07;3.33;;;;;;;18.11;55.70;100610.78;6225413;28;20224;-49
2021/07/29 06:20:28;;;;;;;2.92;2.67;;;;;;;18.81;53.85;100613.84;6241419;28;20253;-48
2021/07/29 06:23:51;;;;;;;5.63;2.40;;;;;;;18.44;54.80;100616.34;6236941;28;20319;-53
2021/07/29 06:27:12;;;;;;;5.93;3.05;;;;;;;18.30;54.76;100613.50;6235689;28;20232;-49
2021/07/29 06:30:33;;;;;;;4.72;2.60;;;;;;;18.56;54.12;100635.19;6224899;28;20224;-49
2021/07/29 06:33:54;;;;;;;6.50;2.92;;;;;;;18.91;53.06;100625.66;6252446;28;20236;-50
2021/07/29 06:37:15;;;;;;;9.30;3.60;;;;;;;18.86;53.12;100628.53;6229464;28;20330;-48
2021/07/29 06:40:37;;;;;;;3.85;2.50;;;;;;;18.73;53.58;100618.56;6238915;28;20683;-49
2021/07/29 06:43:59;;;;;;;4.43;3.13;;;;;;;18.56;54.15;100614.94;6232456;28;20236;-55
2021/07/29 06:47:21;;;;;;;10.57;3.27;;;;;;;18.80;53.32;100630.59;6237180;28;20335;-52
2021/07/29 06:50:42;;;;;;;4.80;2.97;;;;;;;18.50;53.53;100625.75;6230362;28;20311;-51
2021/07/29 06:54:04;;;;;;;10.90;3.33;;;;;;;18.56;53.65;100638.66;6224462;28;20232;-49
2021/07/29 06:57:26;;;;;;;6.27;3.00;;;;;;;18.44;54.06;100640.06;6245940;28;20664;-46
2021/07/29 07:00:47;;;;;;;4.88;2.83;;;;;;;19.11;52.48;100621.22;6237446;28;20237;-48
2021/07/29 07:04:08;;;;;;;5.82;2.33;;;;;;;19.12;51.47;100637.00;6238511;28;20324;-48
2021/07/29 07:07:28;;;;;;;6.20;2.75;;;;;;;18.62;53.17;100643.66;6238306;28;20231;-49
2021/07/29 07:10:49;;;;;;;6.65;2.92;;;;;;;19.24;52.01;100633.75;6238861;28;20506;-51
2021/07/29 07:14:12;;;;;;;3.53;2.65;;;;;;;19.86;49.95;100626.34;6233407;28;20232;-48
2021/07/29 07:17:33;;;;;;;4.65;2.40;;;;;;;19.42;50.18;100642.56;6240477;28;20245;-53
2021/07/29 07:21:03;;;;;;;7.38;3.03;;;;;;;19.28;50.39;100629.19;6237990;28;20253;-53
2021/07/29 07:24:23;;;;;;;5.75;2.58;;;;;;;18.96;50.40;100638.63;6229495;28;20221;-53
2021/07/29 07:27:44;;;;;;;7.55;2.65;;;;;;;19.62;48.70;100648.69;6240894;28;20236;-52
2021/07/29 07:31:06;;;;;;;2.88;2.33;;;;;;;19.08;49.69;100636.28;6234366;28;20607;-52
2021/07/29 07:34:27;;;;;;;4.57;2.35;;;;;;;18.99;50.38;100634.06;6246952;28;20852;-48
2021/07/29 07:37:48;;;;;;;5.43;2.28;;;;;;;18.66;49.92;100637.31;6224887;28;20233;-49
2021/07/29 07:41:10;;;;;;;5.25;2.58;;;;;;;19.39;48.11;100639.25;6234592;28;20629;-52
2021/07/29 07:44:31;;;;;;;7.35;1.95;;;;;;;18.96;49.14;100638.63;6230917;28;20221;-50
2021/07/29 07:47:53;;;;;;;3.80;2.08;;;;;;;19.84;46.48;100638.78;6232980;28;20632;-48
2021/07/29 07:51:14;;;;;;;5.55;2.45;;;;;;;19.53;47.06;100635.94;6232972;28;20247;-49
2021/07/29 07:54:35;;;;;;;7.82;2.28;;;;;;;19.44;46.55;100672.44;6232874;28;20668;-50
2021/07/29 07:57:56;;;;;;;4.32;2.05;;;;;;;19.95;45.40;100634.72;6238586;28;20289;-47
2021/07/29 08:01:17;;;;;;;4.40;2.33;;;;;;;20.49;44.35;100640.75;6231512;28;20586;-53
2021/07/29 08:04:39;;;;;;;4.35;1.98;;;;;;;20.33;44.99;100610.75;6235822;28;20224;-51
2021/07/29 08:08:01;;;;;;;5.03;2.00;;;;;;;20.13;45.47;100628.50;6241438;28;20587;-54
2021/07/29 08:11:22;;;;;;;5.97;1.77;;;;;;;19.90;45.85;100634.13;6236167;28;20286;-51
2021/07/29 08:14:43;;;;;;;5.95;2.75;;;;;;;20.17;45.64;100635.34;6212881;28;20428;-51
2021/07/29 08:18:04;;;;;;;6.22;2.70;;;;;;;20.15;45.44;100642.50;6203656;28;20237;-54
2021/07/29 08:21:26;;;;;;;6.95;2.33;;;;;;;19.97;45.32;100624.97;6212238;28;20241;-51
2021/07/29 08:24:47;;;;;;;3.75;2.17;;;;;;;19.94;44.96;100627.75;6206874;28;20241;-49
2021/07/29 08:28:08;;;;;;;4.43;1.83;;;;;;;19.80;45.60;100642.50;6206472;28;20237;-50
2021/07/29 08:31:29;;;;;;;2.45;1.75;;;;;;;19.72;45.53;100623.56;6215920;28;20229;-48
2021/07/29 08:34:50;;;;;;;3.78;2.17;;;;;;;19.49;46.04;100640.50;6246606;28;20270;-52
2021/07/29 08:38:13;;;;;;;7.95;2.10;;;;;;;20.08;45.02;100640.25;6233569;28;20928;-53
2021/07/29 08:41:35;;;;;;;3.75;2.22;;;;;;;19.53;46.66;100649.13;6234770;28;20564;-50
2021/07/29 08:44:56;;;;;;;6.05;2.50;;;;;;;19.54;45.99;100661.41;6245466;28;20228;-49
2021/07/29 08:48:21;;;;;;;3.40;1.52;;;;;;;20.36;44.08;100639.69;6235489;28;20607;-52
2021/07/29 08:51:42;;;;;;;11.23;2.20;;;;;;;20.08;45.03;100662.25;6240663;28;20225;-53
2021/07/29 08:55:06;;;;;;;7.13;2.20;;;;;;;19.57;46.45;100653.34;6235648;28;20233;-54
2021/07/29 08:58:28;;;;;;;4.45;2.05;;;;;;;20.53;44.46;100634.34;6232108;28;20661;-54
2021/07/29 09:01:52;;;;;;;4.32;2.22;;;;;;;20.30;43.03;100639.97;6237375;28;20231;-54
2021/07/29 09:05:18;;;;;;;4.30;1.83;;;;;;;20.13;42.21;100654.94;6236262;28;20707;-53
2021/07/29 09:08:50;;;;;;;3.67;2.13;;;;;;;20.16;42.32;100644.22;6245288;28;20228;-50
2021/07/29 09:12:20;;;;;;;3.85;1.80;;;;;;;19.95;43.20;100637.38;6238552;28;20239;-50
2021/07/29 09:15:41;;;;;;;4.43;1.70;;;;;;;20.65;41.98;100641.66;6207985;28;20689;-52
2021/07/29 09:19:02;;;;;;;6.22;1.77;;;;;;;20.93;40.41;100650.72;6202358;28;20237;-50
2021/07/29 09:22:25;;;;;;;5.90;1.70;;;;;;;20.02;41.35;100647.53;6238732;28;20228;-50
2021/07/29 09:25:46;;;;;;;5.85;2.30;;;;;;;20.19;39.82;100648.47;6237327;28;20241;-51
2021/07/29 09:29:21;;;;;;;3.33;1.52;;;;;;;20.74;39.14;100661.44;6230371;28;20260;-47
2021/07/29 09:32:57;;;;;;;4.45;2.13;;;;;;;20.85;37.79;100648.50;6242358;28;20280;-50
2021/07/29 09:36:18;;;;;;;3.83;1.25;;;;;;;20.80;37.82;100647.03;6244087;28;20500;-51
2021/07/29 09:39:39;;;;;;;4.68;2.20;;;;;;;20.24;39.32;100649.97;6242055;28;20237;-53
2021/07/29 09:43:09;;;;;;;4.80;1.60;;;;;;;20.64;39.57;100650.50;6245403;28;20225;-51
2021/07/29 09:46:31;;;;;;;2.28;1.45;;;;;;;20.91;38.84;100673.78;6230900;28;20760;-53
2021/07/29 09:49:52;;;;;;;8.95;2.08;;;;;;;21.18;38.50;100644.06;6240195;28;20239;-54
2021/07/29 09:53:14;;;;;;;3.95;1.65;;;;;;;21.17;38.21;100647.66;6218543;28;20232;-61
2021/07/29 09:56:38;;;;;;;2.22;1.55;;;;;;;21.41;38.09;100648.06;6231355;28;20225;-60
2021/07/29 09:59:59;;;;;;;6.00;1.73;;;;;;;21.32;38.28;100649.44;6215772;28;20611;-59
2021/07/29 10:03:23;;;;;;;6.43;2.10;;;;;;;20.55;39.44;100651.00;6244497;28;20227;-53
2021/07/29 10:06:48;;;;;;;5.35;1.77;;;;;;;21.33;38.16;100658.25;6238048;28;20237;-52
2021/07/29 10:10:10;;;;;;;4.85;1.70;;;;;;;21.36;38.65;100653.59;6225857;28;20261;-53
2021/07/29 10:13:33;;;;;;;4.35;1.80;;;;;;;21.64;37.85;100644.13;6190021;28;20679;-53
2021/07/29 10:16:54;;;;;;;5.07;1.73;;;;;;;20.75;39.05;100668.47;6211789;28;20232;-48
2021/07/29 10:20:19;;;;;;;4.50;1.40;;;;;;;20.67;39.27;100660.09;6210375;28;20236;-52
2021/07/29 10:23:59;;;;;;;5.18;1.92;;;;;;;20.65;39.25;100657.53;6205351;28;20655;-53
2021/07/29 10:27:20;;;;;;;8.30;2.28;;;;;;;20.38;39.71;100654.50;6207872;28;20242;-52
2021/07/29 10:30:51;;;;;;;6.03;2.22;;;;;;;20.70;39.07;100657.25;6212962;28;20232;-50
2021/07/29 10:34:24;;;;;;;8.02;2.00;;;;;;;21.03;38.69;100646.66;6232075;28;20240;-53
2021/07/29 10:37:47;;;;;;;7.18;2.92;;;;;;;21.99;37.15;100657.09;6236127;28;20617;-49
2021/07/29 10:41:42;;;;;;;6.97;2.53;;;;;;;21.20;37.71;100663.38;6236298;28;20233;-52
2021/07/29 10:45:04;;;;;;;6.68;2.50;;;;;;;20.46;38.77;100662.91;6231354;28;20275;-54
2021/07/29 10:49:12;;;;;;;3.35;1.90;;;;;;;21.13;40.20;100665.53;6238319;28;20236;-61
2021/07/29 10:52:34;;;;;;;3.33;1.73;;;;;;;20.75;39.87;100667.63;6232336;28;20232;-61
2021/07/29 10:55:56;;;;;;;5.38;2.20;;;;;;;21.05;40.11;100675.66;6233634;28;20243;-61
2021/07/29 10:59:19;;;;;;;3.55;1.67;;;;;;;20.77;40.14;100681.63;6232734;28;20223;-61
2021/07/29 11:02:47;;;;;;;6.57;2.20;;;;;;;21.21;39.69;100659.78;6234175;28;20224;-64
2021/07/29 11:06:12;;;;;;;3.75;2.25;;;;;;;20.16;41.64;100688.28;6225002;28;20232;-63
2021/07/29 11:09:35;;;;;;;6.28;1.67;;;;;;;20.54;40.95;100688.94;6207714;28;20749;-63
2021/07/29 11:12:57;;;;;;;4.95;1.85;;;;;;;21.04;39.92;100689.84;6208907;28;20871;-61
2021/07/29 11:16:18;;;;;;;4.35;1.73;;;;;;;20.95;40.39;100683.25;6212657;28;20236;-63
2021/07/29 11:19:43;;;;;;;6.22;1.85;;;;;;;20.62;41.29;100700.00;6211922;28;20648;-63
2021/07/29 11:23:04;;;;;;;5.22;2.15;;;;;;;20.33;44.25;100703.28;6222423;28;20236;-67
2021/07/29 11:26:26;;;;;;;4.63;2.17;;;;;;;19.52;46.42;100703.72;6241462;28;20223;-65
2021/07/29 11:29:55;;;;;;;3.83;1.60;;;;;;;19.51;48.37;100701.19;6220658;28;20305;-64
2021/07/29 11:33:21;;;;;;;5.00;1.98;;;;;;;20.30;46.41;100699.03;6236215;28;21186;-65
2021/07/29 11:36:51;;;;;;;2.88;1.70;;;;;;;20.91;45.33;100697.59;6230612;28;20240;-63
2021/07/29 11:40:20;;;;;;;4.28;2.17;;;;;;;21.42;43.87;100694.78;6230238;28;20235;-65
2021/07/29 11:43:53;;;;;;;3.47;1.70;;;;;;;21.30;42.36;100693.69;6246561;28;20586;-62
2021/07/29 11:47:15;;;;;;;6.47;2.22;;;;;;;21.51;41.55;100677.56;6238273;28;20232;-64
2021/07/29 11:50:38;;;;;;;2.38;2.10;;;;;;;21.29;41.91;100686.69;6220240;28;20229;-51
2021/07/29 11:53:59;;;;;;;6.15;1.65;;;;;;;21.71;39.92;100679.91;6215643;28;20233;-48
2021/07/29 11:57:28;;;;;;;3.97;2.25;;;;;;;21.68;38.39;100674.81;6214698;28;20343;-54
2021/07/29 12:00:49;;;;;;;7.15;1.98;;;;;;;21.85;38.07;100665.00;6205925;28;20235;-54
2021/07/29 12:04:12;;;;;;;4.90;1.92;;;;;;;22.21;37.25;100661.97;6213268;28;20384;-55
2021/07/29 12:07:36;;;;;;;4.13;1.70;;;;;;;21.46;37.87;100674.31;6218313;28;20216;-54
2021/07/29 12:10:59;;;;;;;4.03;1.70;;;;;;;22.43;36.83;100658.91;6216477;28;20232;-48
2021/07/29 12:14:22;;;;;;;4.13;2.10;;;;;;;22.47;37.06;100668.41;6241167;28;20642;-52
2021/07/29 12:17:43;;;;;;;3.92;1.50;;;;;;;21.90;37.64;100665.59;6243862;28;20618;-56
2021/07/29 12:21:07;;;;;;;5.05;1.90;;;;;;;22.29;37.17;100658.88;6246196;28;20236;-52
2021/07/29 12:24:47;;;;;;;15.70;2.13;;;;;;;21.55;37.63;100695.00;6242455;28;20311;-54
2021/07/29 12:28:08;;;;;;;10.27;2.13;;;;;;;20.88;38.25;100695.13;6236864;28;20811;-52
2021/07/29 12:31:31;;;;;;;8.18;2.13;;;;;;;21.63;37.25;100688.34;6237653;28;20229;-51
2021/07/29 12:34:54;;;;;;;5.35;2.00;;;;;;;22.33;36.36;100682.50;6235118;28;20324;-50
2021/07/29 12:38:16;;;;;;;15.82;3.20;;;;;;;22.57;36.78;100685.44;6238025;28;20505;-50
2021/07/29 12:41:39;;;;;;;12.38;2.38;;;;;;;21.77;35.89;100695.47;6244115;28;20627;-49
2021/07/29 12:45:04;;;;;;;6.90;1.85;;;;;;;22.07;35.19;100709.69;6238793;28;20220;-52
2021/07/29 12:48:26;;;;;;;4.30;1.58;;;;;;;22.72;33.80;100694.28;6240048;28;20515;-52
2021/07/29 12:51:49;;;;;;;3.90;1.05;;;;;;;24.27;30.38;100701.13;6247409;28;20626;-51
2021/07/29 12:55:13;;;;;;;5.18;1.25;;;;;;;24.71;30.17;100690.06;6243493;28;20225;-55
2021/07/29 12:58:39;;;;;;;2.75;1.15;;;;;;;24.93;29.63;100673.44;6240111;28;20231;-51
2021/07/29 13:01:59;;;;;;;4.38;1.30;;;;;;;26.80;27.69;100684.34;6239657;28;20232;-54
2021/07/29 13:05:20;;;;;;;3.30;1.50;;;;;;;26.94;27.24;100674.38;6246691;28;20255;-65
2021/07/29 13:08:41;;;;;;;6.55;1.85;;;;;;;25.26;30.01;100687.13;6242471;28;20228;-64
2021/07/29 13:12:05;;;;;;;2.03;1.70;;;;;;;24.73;30.75;100730.75;6240229;28;20582;-65
2021/07/29 13:15:27;;;;;;;3.08;1.30;;;;;;;25.08;30.60;100699.94;6241889;28;20606;-66
2021/07/29 13:18:48;;;;;;;4.20;2.00;;;;;;;23.86;32.44;100689.66;6246387;28;20952;-65
2021/07/29 13:22:08;;;;;;;5.15;2.10;;;;;;;26.63;28.82;100680.34;6233448;28;20634;-65
2021/07/29 13:25:29;;;;;;;7.80;2.85;;;;;;;26.80;28.59;100697.72;6234972;28;20233;-65
2021/07/29 13:28:51;;;;;;;7.68;1.88;;;;;;;25.95;30.37;100692.69;6227778;28;20316;-67
2021/07/29 13:32:13;;;;;;;6.30;2.97;;;;;;;23.99;33.26;100692.38;6227649;28;20259;-66
2021/07/29 13:35:34;;;;;;;4.65;1.80;;;;;;;22.33;36.26;100710.81;6221076;28;20225;-65
2021/07/29 13:38:55;;;;;;;3.75;1.92;;;;;;;21.73;37.52;100707.19;6202358;28;20370;-65
2021/07/29 13:42:16;;;;;;;8.15;2.20;;;;;;;21.64;37.99;100689.19;6221391;28;20233;-67
2021/07/29 13:45:39;;;;;;;8.55;2.30;;;;;;;21.32;39.59;100733.34;6207740;28;20324;-63
2021/07/29 13:48:59;;;;;;;6.50;2.13;;;;;;;20.62;38.81;100702.66;6203632;28;20241;-54
2021/07/29 13:52:20;;;;;;;6.82;1.88;;;;;;;20.57;39.10;100702.03;6215232;28;20323;-51
2021/07/29 13:55:41;;;;;;;4.38;1.73;;;;;;;21.59;37.10;100702.66;6203295;28;20248;-48
2021/07/29 13:59:02;;;;;;;6.68;2.60;;;;;;;21.25;37.64;100727.53;6210959;28;20278;-52
2021/07/29 14:02:24;;;;;;;3.88;1.30;;;;;;;20.68;39.07;100725.28;6210353;28;20236;-49
2021/07/29 14:05:46;;;;;;;8.38;2.00;;;;;;;20.53;41.09;100737.50;6216472;28;20233;-48
2021/07/29 14:09:06;;;;;;;5.22;2.10;;;;;;;20.09;44.85;100732.69;6217615;28;20456;-51
2021/07/29 14:12:28;;;;;;;5.32;2.72;;;;;;;21.47;46.15;100736.97;6224283;28;20308;-50
2021/07/29 14:15:49;;;;;;;2.65;1.95;;;;;;;21.54;44.74;100711.81;6232501;28;20543;-53
2021/07/29 14:19:12;;;;;;;3.78;2.10;;;;;;;23.39;41.78;100721.03;6207115;28;20610;-51
2021/07/29 14:26:26;;;;;;;2.65;2.03;;;;;;;23.20;41.42;100717.84;6135314;28;20871;-52
2021/07/29 14:29:47;;;;;;;4.72;2.65;;;;;;;24.46;39.05;100714.03;6146868;28;20242;-55
2021/07/29 14:33:08;;;;;;;8.68;2.83;;;;;;;24.35;38.68;100717.44;6234276;28;20486;-51
2021/07/29 14:36:31;;;;;;;3.00;2.63;;;;;;;23.03;39.24;100715.41;6228743;28;20239;-52
2021/07/29 14:39:54;;;;;;;3.00;1.83;;;;;;;23.55;38.93;100712.06;6234216;28;20605;-54
2021/07/29 14:43:15;;;;;;;3.58;2.08;;;;;;;23.80;37.75;100731.78;6228475;28;20240;-54
2021/07/29 14:50:23;;;;;;;4.25;1.60;;;;;;;22.99;37.13;100728.88;6226177;28;20237;-49
2021/07/29 14:53:45;;;;;;;5.47;1.30;;;;;;;23.23;36.76;100717.69;6250970;28;20609;-54
2021/07/29 14:57:10;;;;;;;5.38;2.00;;;;;;;22.21;38.76;100734.41;6242304;28;20311;-51
2021/07/29 16:10:01;;;;;;;5.00;1.77;;;;;;;22.89;38.24;100750.75;6223177;28;20232;-50
2021/07/29 16:13:28;;;;;;;6.57;2.05;;;;;;;22.90;37.56;100732.09;6206705;28;20233;-50
2021/07/29 16:16:49;;;;;;;5.65;2.80;;;;;;;22.44;38.24;100742.00;6217231;28;20237;-50
2021/07/29 16:20:12;;;;;;;5.70;2.13;;;;;;;22.63;38.00;100725.84;6231439;28;20500;-52
2021/07/29 16:23:34;;;;;;;5.90;1.90;;;;;;;23.06;36.83;100733.81;6247383;28;20535;-51
2021/07/29 16:26:54;;;;;;;4.82;1.88;;;;;;;23.12;36.48;100734.28;6246746;28;20577;-48
2021/07/29 16:30:16;;;;;;;5.72;1.75;;;;;;;23.42;35.33;100735.06;6230677;28;20624;-52
2021/07/29 16:33:37;;;;;;;2.55;1.58;;;;;;;23.26;35.37;100745.84;6239860;28;20670;-50
2021/07/29 16:36:57;;;;;;;3.55;2.15;;;;;;;22.42;36.39;100745.59;6237460;28;20228;-51
2021/07/29 16:40:20;;;;;;;2.80;1.40;;;;;;;22.84;36.98;100740.44;6238536;28;20228;-50
2021/07/29 16:43:41;;;;;;;7.18;1.70;;;;;;;23.13;34.83;100724.53;6231870;28;20554;-52
2021/07/29 16:47:03;;;;;;;6.82;2.55;;;;;;;22.78;34.60;100740.81;6234379;28;20236;-51
2021/07/29 16:50:24;;;;;;;2.28;1.50;;;;;;;22.42;34.90;100718.22;6246514;28;20220;-52
2021/07/29 16:53:45;;;;;;;4.03;1.98;;;;;;;22.26;35.26;100749.28;6245359;28;20225;-53
2021/07/29 16:57:07;;;;;;;2.55;1.20;;;;;;;22.51;34.21;100752.16;6246812;28;20248;-53
2021/07/29 17:00:28;;;;;;;4.55;1.50;;;;;;;22.12;34.98;100755.31;6230705;28;20240;-54